TimeEST,TemperatureF,Dew PointF,Humidity,Sea Level PressureIn,VisibilityMPH,Wind Direction,Wind SpeedMPH,Gust SpeedMPH,PrecipitationIn,Events,Conditions,WindDirDegrees,DateUTC
12:47 AM,44.6,42.8,93,30.37,1.8,Calm,Calm,-,N/A,,Clear,0,2012-12-02 05:47:00
12:54 AM,43.0,42.1,97,30.37,2.0,Calm,Calm,-,N/A,,Clear,0,2012-12-02 05:54:00
1:35 AM,41.0,39.2,93,30.37,1.8,Calm,Calm,-,N/A,,Clear,0,2012-12-02 06:35:00
1:45 AM,42.8,39.2,87,30.37,4.0,Calm,Calm,-,N/A,,Clear,0,2012-12-02 06:45:00
1:54 AM,42.1,41.0,96,30.37,6.0,Calm,Calm,-,N/A,,Clear,0,2012-12-02 06:54:00
2:08 AM,41.0,39.2,93,30.38,1.8,Calm,Calm,-,N/A,,Clear,0,2012-12-02 07:08:00
2:13 AM,41.0,39.2,93,30.38,1.0,Calm,Calm,-,N/A,,Clear,0,2012-12-02 07:13:00
2:19 AM,42.8,39.2,87,30.38,1.8,Calm,Calm,-,N/A,,Clear,0,2012-12-02 07:19:00
2:23 AM,42.8,41.0,93,30.38,3.0,Calm,Calm,-,N/A,,Clear,0,2012-12-02 07:23:00
2:54 AM,42.1,41.0,96,30.37,6.0,Calm,Calm,-,N/A,,Clear,0,2012-12-02 07:54:00
3:54 AM,39.9,39.0,97,30.37,5.0,Calm,Calm,-,N/A,,Clear,0,2012-12-02 08:54:00
4:54 AM,39.9,37.9,93,30.37,6.0,Calm,Calm,-,N/A,,Clear,0,2012-12-02 09:54:00
5:08 AM,39.2,39.2,100,30.37,5.0,Calm,Calm,-,N/A,,Partly Cloudy,0,2012-12-02 10:08:00
5:27 AM,41.0,39.2,93,30.37,4.0,Calm,Calm,-,N/A,,Mostly Cloudy,0,2012-12-02 10:27:00
5:54 AM,39.9,39.0,97,30.37,5.0,Calm,Calm,-,N/A,,Mostly Cloudy,0,2012-12-02 10:54:00
6:05 AM,39.2,39.2,100,30.37,5.0,Calm,Calm,-,N/A,,Scattered Clouds,0,2012-12-02 11:05:00
6:54 AM,41.0,39.9,96,30.38,6.0,Calm,Calm,-,N/A,,Overcast,0,2012-12-02 11:54:00
7:29 AM,42.8,41.0,93,30.38,2.5,Calm,Calm,-,N/A,,Overcast,0,2012-12-02 12:29:00
7:54 AM,44.1,42.1,93,30.39,2.5,Calm,Calm,-,N/A,,Overcast,0,2012-12-02 12:54:00
8:54 AM,48.0,46.0,93,30.40,2.0,Calm,Calm,-,N/A,,Overcast,0,2012-12-02 13:54:00
9:30 AM,51.8,48.2,88,30.40,3.0,Calm,Calm,-,N/A,,Overcast,0,2012-12-02 14:30:00
9:54 AM,55.0,50.0,83,30.40,5.0,Calm,Calm,-,N/A,,Haze,0,2012-12-02 14:54:00
10:54 AM,62.1,51.1,67,30.39,10.0,Calm,Calm,-,N/A,,Partly Cloudy,0,2012-12-02 15:54:00
11:54 AM,64.9,50.0,58,30.35,10.0,SE,4.6,-,N/A,,Overcast,140,2012-12-02 16:54:00
12:54 PM,68.0,50.0,52,30.32,10.0,SSE,8.1,-,N/A,,Mostly Cloudy,160,2012-12-02 17:54:00
1:54 PM,69.1,51.1,53,30.30,10.0,South,10.4,-,N/A,,Scattered Clouds,190,2012-12-02 18:54:00
2:54 PM,68.0,53.1,59,30.28,10.0,SSE,6.9,-,N/A,,Overcast,160,2012-12-02 19:54:00
4:54 PM,64.9,55.0,70,30.29,10.0,Calm,Calm,-,N/A,,Mostly Cloudy,0,2012-12-02 21:54:00
5:54 PM,57.9,53.1,84,30.29,10.0,Calm,Calm,-,N/A,,Clear,0,2012-12-02 22:54:00
6:54 PM,57.9,55.0,90,30.29,10.0,South,3.5,-,N/A,,Clear,170,2012-12-02 23:54:00
7:54 PM,57.9,54.0,87,30.30,10.0,Calm,Calm,-,N/A,,Mostly Cloudy,0,2012-12-03 00:54:00
8:54 PM,55.0,53.1,93,30.29,9.0,Calm,Calm,-,N/A,,Mostly Cloudy,0,2012-12-03 01:54:00
9:54 PM,54.0,52.0,93,30.29,7.0,Calm,Calm,-,N/A,,Mostly Cloudy,0,2012-12-03 02:54:00
10:54 PM,53.1,52.0,96,30.29,4.0,South,3.5,-,N/A,,Clear,180,2012-12-03 03:54:00
11:13 PM,51.8,50.0,94,30.29,2.5,Calm,Calm,-,N/A,,Partly Cloudy,0,2012-12-03 04:13:00
11:27 PM,50.0,50.0,100,30.29,4.0,Calm,Calm,-,N/A,,Partly Cloudy,0,2012-12-03 04:27:00
11:54 PM,51.1,50.0,96,30.29,1.8,Calm,Calm,-,N/A,,Clear,0,2012-12-03 04:54:00
11:56 PM,51.8,50.0,94,30.29,0.8,Calm,Calm,-,N/A,,Clear,0,2012-12-03 04:56:00